Time;durP1;ratioP1;P1;durP2;ratioP2;P2;SDS_P1;SDS_P2;PMS_P1;PMS_P2;Temp;Humidity;BMP_temperature;BMP_pressure;BME280_temperature;BME280_humidity;BME280_pressure;Samples;Min_cycle;Max_cycle;Signal;HPM_P1;HPM_P2
2021/01/27 00:01:14;;;;;;;5.57;3.07;;;4.40;78.20;;;;;;5136292;27;20853;-71
2021/01/27 00:03:40;;;;;;;3.37;2.80;;;4.50;76.80;;;;;;5136599;27;20446;-71
2021/01/27 00:06:06;;;;;;;4.87;3.80;;;4.40;76.30;;;;;;5135958;27;20991;-71
2021/01/27 00:08:33;;;;;;;3.30;2.70;;;4.50;75.80;;;;;;5136496;27;20438;-71
2021/01/27 00:11:00;;;;;;;3.50;2.80;;;4.50;75.40;;;;;;5136510;27;20459;-71
2021/01/27 00:13:26;;;;;;;4.77;2.93;;;4.50;75.30;;;;;;5136341;27;20438;-71
2021/01/27 00:15:52;;;;;;;6.33;2.63;;;4.50;74.80;;;;;;5136298;27;20462;-71
2021/01/27 00:18:20;;;;;;;5.73;2.40;;;4.50;73.90;;;;;;5136361;27;20441;-71
2021/01/27 00:20:47;;;;;;;3.00;2.50;;;4.50;74.50;;;;;;5136252;27;20480;-71
2021/01/27 00:23:13;;;;;;;2.90;2.13;;;4.50;74.50;;;;;;5136231;27;20445;-71
2021/01/27 00:25:40;;;;;;;2.80;2.17;;;4.50;74.40;;;;;;5136031;27;20489;-71
2021/01/27 00:28:08;;;;;;;6.23;2.80;;;4.50;73.90;;;;;;5136085;27;20806;-71
2021/01/27 00:30:37;;;;;;;4.97;2.70;;;4.50;73.40;;;;;;5135776;27;20955;-71
2021/01/27 00:33:05;;;;;;;5.57;2.30;;;4.50;73.90;;;;;;5136054;27;20445;-71
2021/01/27 00:35:35;;;;;;;3.63;2.60;;;4.50;73.40;;;;;;5135908;27;20454;-71
2021/01/27 00:38:09;;;;;;;3.03;2.63;;;4.60;73.50;;;;;;5135934;27;20446;-71
2021/01/27 00:40:35;;;;;;;3.20;2.40;;;4.60;72.90;;;;;;5136399;27;20486;-71
2021/01/27 00:43:02;;;;;;;4.63;2.57;;;4.50;72.60;;;;;;5136340;27;20445;-70
2021/01/27 00:45:28;;;;;;;2.83;2.53;;;4.50;72.60;;;;;;5135387;27;20979;-70
2021/01/27 00:47:54;;;;;;;5.73;3.33;;;4.50;73.40;;;;;;5135209;27;20438;-70
2021/01/27 00:50:20;;;;;;;2.93;2.63;;;4.50;73.20;;;;;;5135038;27;20442;-71
2021/01/27 00:52:47;;;;;;;4.67;2.50;;;4.50;73.30;;;;;;5135614;27;20434;-71
2021/01/27 00:55:16;;;;;;;2.63;2.43;;;4.50;73.60;;;;;;5135538;27;20476;-71
2021/01/27 00:57:42;;;;;;;8.23;3.20;;;4.50;73.50;;;;;;5135277;27;20945;-71
2021/01/27 01:00:15;;;;;;;12.50;2.93;;;4.50;74.30;;;;;;5135493;27;20442;-71
2021/01/27 01:02:41;;;;;;;5.10;2.40;;;4.60;73.60;;;;;;5136048;27;20422;-71
2021/01/27 01:05:12;;;;;;;5.37;2.70;;;4.60;73.60;;;;;;5134808;27;20539;-71
2021/01/27 01:07:38;;;;;;;3.63;2.30;;;4.60;73.90;;;;;;5135340;27;20814;-71
2021/01/27 01:10:06;;;;;;;3.57;3.10;;;4.60;74.40;;;;;;5135308;27;20438;-71
2021/01/27 01:12:32;;;;;;;6.70;4.27;;;4.60;73.50;;;;;;5135241;27;20453;-71
2021/01/27 01:14:59;;;;;;;5.20;3.40;;;4.60;73.80;;;;;;5135142;27;20832;-71
2021/01/27 01:17:26;;;;;;;5.77;3.00;;;4.60;73.40;;;;;;5134841;27;21008;-71
2021/01/27 01:19:52;;;;;;;9.57;3.50;;;4.60;72.70;;;;;;5135172;27;20442;-71
2021/01/27 01:22:18;;;;;;;3.80;2.73;;;4.60;74.30;;;;;;5135071;27;20438;-71
2021/01/27 01:24:44;;;;;;;3.63;2.97;;;4.60;73.10;;;;;;5134900;27;20458;-71
2021/01/27 01:27:10;;;;;;;3.30;2.50;;;4.60;73.70;;;;;;5135019;27;20437;-71
2021/01/27 01:29:37;;;;;;;4.23;3.03;;;4.60;73.30;;;;;;5134980;27;20438;-71
2021/01/27 01:32:03;;;;;;;3.80;3.00;;;4.70;72.60;;;;;;5135004;27;20437;-71
2021/01/27 01:34:30;;;;;;;5.30;3.60;;;4.70;73.10;;;;;;5134824;27;20858;-71
2021/01/27 01:36:56;;;;;;;8.63;3.43;;;4.60;73.10;;;;;;5134868;27;20441;-71
2021/01/27 01:39:22;;;;;;;6.03;3.50;;;4.60;73.00;;;;;;5134516;27;20927;-71
2021/01/27 01:41:49;;;;;;;5.27;2.93;;;4.60;72.50;;;;;;5134766;27;20442;-71
2021/01/27 01:44:15;;;;;;;8.10;2.70;;;4.60;72.20;;;;;;5134653;27;20473;-71
2021/01/27 01:46:41;;;;;;;2.67;2.47;;;4.50;71.00;;;;;;5134629;27;20477;-71
2021/01/27 01:49:10;;;;;;;5.63;2.10;;;4.50;70.50;;;;;;5134671;27;20446;-71
2021/01/27 01:51:41;;;;;;;2.97;2.40;;;4.40;70.50;;;;;;5134601;27;20445;-71
2021/01/27 01:54:14;;;;;;;5.50;2.00;;;4.30;71.60;;;;;;5134561;27;20434;-71
2021/01/27 01:56:43;;;;;;;3.57;2.17;;;4.30;72.00;;;;;;5134646;27;20434;-70
2021/01/27 01:59:11;;;;;;;2.80;2.00;;;4.20;73.20;;;;;;5134516;27;20448;-71
2021/01/27 02:01:40;;;;;;;2.87;2.03;;;4.30;74.00;;;;;;5134286;27;20437;-70
2021/01/27 02:04:06;;;;;;;4.37;2.50;;;4.20;74.50;;;;;;5134258;27;20442;-71
2021/01/27 02:06:32;;;;;;;3.40;2.50;;;4.20;75.30;;;;;;5134129;28;20481;-70
2021/01/27 02:09:00;;;;;;;4.73;2.50;;;4.20;76.40;;;;;;5134408;28;20446;-70
2021/01/27 02:11:38;;;;;;;3.37;2.20;;;4.20;77.00;;;;;;5134399;28;20438;-70
2021/01/27 02:14:18;;;;;;;3.70;2.50;;;4.20;78.20;;;;;;5134896;28;20601;-70
2021/01/27 02:16:50;;;;;;;4.23;2.70;;;4.10;78.60;;;;;;5134123;28;20891;-70
2021/01/27 02:20:03;;;;;;;2.87;2.60;;;4.10;79.00;;;;;;5134368;28;20545;-70
2021/01/27 02:23:01;;;;;;;5.43;2.63;;;4.00;80.50;;;;;;5134410;28;20771;-70
2021/01/27 02:26:02;;;;;;;2.30;2.10;;;4.00;81.30;;;;;;5134153;28;20496;-71
2021/01/27 02:28:43;;;;;;;3.57;2.53;;;4.00;82.30;;;;;;5134304;28;20422;-71
2021/01/27 02:31:17;;;;;;;3.40;2.70;;;4.00;82.70;;;;;;5134211;28;20426;-71
2021/01/27 02:34:04;;;;;;;2.80;2.50;;;4.10;83.20;;;;;;5134278;28;20445;-71
2021/01/27 02:36:37;;;;;;;2.33;2.00;;;4.10;83.30;;;;;;5134208;28;20426;-70
2021/01/27 02:39:10;;;;;;;2.20;1.93;;;4.10;83.80;;;;;;5134194;28;20482;-71
2021/01/27 02:41:42;;;;;;;3.20;2.00;;;4.10;84.30;;;;;;5134089;28;20430;-71
2021/01/27 02:44:15;;;;;;;4.80;2.20;;;4.10;85.20;;;;;;5134070;28;20426;-70
2021/01/27 02:46:48;;;;;;;3.63;2.23;;;4.10;85.80;;;;;;5134604;28;20461;-71
2021/01/27 02:49:19;;;;;;;3.40;2.07;;;4.00;86.50;;;;;;5134078;28;20429;-71
2021/01/27 02:51:51;;;;;;;7.00;2.90;;;4.00;87.00;;;;;;5134026;28;20433;-71
2021/01/27 02:54:21;;;;;;;3.03;2.67;;;4.10;87.20;;;;;;5134416;28;20473;-71
2021/01/27 02:56:53;;;;;;;2.60;2.40;;;4.10;87.50;;;;;;5133617;28;20928;-71
2021/01/27 02:59:26;;;;;;;5.03;2.57;;;4.10;87.90;;;;;;5134016;28;20422;-71
2021/01/27 03:01:59;;;;;;;4.80;2.70;;;4.10;87.70;;;;;;5133959;28;20429;-71
2021/01/27 03:04:30;;;;;;;3.97;2.37;;;4.20;87.60;;;;;;5133901;28;20812;-71
2021/01/27 03:06:58;;;;;;;3.83;2.40;;;4.20;87.20;;;;;;5133466;28;20486;-71
2021/01/27 03:09:31;;;;;;;2.13;1.93;;;4.20;87.00;;;;;;5133915;28;20438;-71
2021/01/27 03:11:57;;;;;;;5.33;2.27;;;4.10;87.10;;;;;;5134241;27;20907;-70
2021/01/27 03:14:23;;;;;;;2.67;2.20;;;4.10;86.90;;;;;;5137525;27;20469;-71
2021/01/27 03:16:58;;;;;;;2.93;2.30;;;4.10;87.30;;;;;;5137503;27;20491;-71
2021/01/27 03:19:37;;;;;;;5.10;2.50;;;4.10;87.50;;;;;;5137534;27;20421;-71
2021/01/27 03:22:09;;;;;;;2.50;2.30;;;4.10;87.40;;;;;;5137499;27;20426;-71
2021/01/27 03:24:41;;;;;;;4.00;2.77;;;4.10;87.30;;;;;;5137370;27;20515;-71
2021/01/27 03:27:12;;;;;;;3.17;2.87;;;4.10;87.10;;;;;;5136954;27;20454;-71
2021/01/27 03:29:45;;;;;;;3.40;2.97;;;4.10;87.30;;;;;;5137320;27;20426;-71
2021/01/27 03:32:19;;;;;;;3.33;2.63;;;4.10;87.20;;;;;;5137754;27;20482;-70
2021/01/27 03:34:53;;;;;;;4.73;3.03;;;4.20;87.20;;;;;;5137101;27;20889;-70
2021/01/27 03:37:27;;;;;;;3.00;2.70;;;4.10;87.00;;;;;;5137219;27;20782;-70
2021/01/27 03:40:00;;;;;;;4.60;2.67;;;4.10;87.20;;;;;;5137144;27;20541;-71
2021/01/27 03:42:33;;;;;;;4.17;2.87;;;4.10;87.80;;;;;;5136766;27;20456;-71
2021/01/27 03:45:04;;;;;;;2.30;2.10;;;4.10;87.70;;;;;;5137096;27;21012;-71
2021/01/27 03:47:35;;;;;;;3.33;2.77;;;4.10;87.70;;;;;;5136997;27;20471;-70
2021/01/27 03:50:05;;;;;;;3.13;2.27;;;4.10;87.90;;;;;;5136926;27;20428;-71
2021/01/27 03:52:37;;;;;;;3.93;2.17;;;4.10;87.90;;;;;;5136886;27;20425;-71
2021/01/27 03:55:13;;;;;;;11.20;3.70;;;4.10;87.90;;;;;;5136761;27;20464;-71
2021/01/27 03:57:45;;;;;;;3.43;2.17;;;4.10;87.60;;;;;;5137333;27;20474;-71
2021/01/27 04:00:12;;;;;;;3.27;2.60;;;4.10;87.70;;;;;;5136692;27;20429;-71
2021/01/27 04:02:39;;;;;;;4.10;2.43;;;4.10;87.60;;;;;;5136643;27;20461;-71
2021/01/27 04:05:06;;;;;;;6.83;2.70;;;4.10;87.60;;;;;;5136304;27;20538;-71
2021/01/27 04:07:33;;;;;;;4.07;2.30;;;4.10;87.40;;;;;;5136228;27;20445;-71
2021/01/27 04:09:59;;;;;;;4.10;2.20;;;4.20;87.20;;;;;;5136531;27;20442;-71
2021/01/27 04:12:26;;;;;;;6.23;2.03;;;4.10;87.30;;;;;;5136477;27;20438;-71
2021/01/27 04:14:52;;;;;;;2.90;2.30;;;4.10;87.20;;;;;;5136421;27;20454;-71
2021/01/27 04:17:27;;;;;;;2.90;1.93;;;4.10;87.10;;;;;;5136320;27;20502;-71
2021/01/27 04:19:53;;;;;;;2.60;2.37;;;4.20;86.70;;;;;;5136353;27;20433;-71
2021/01/27 04:22:20;;;;;;;5.33;2.40;;;4.20;86.70;;;;;;5136227;27;20449;-71
2021/01/27 04:24:47;;;;;;;3.37;2.23;;;4.30;86.80;;;;;;5135803;27;20469;-71
2021/01/27 04:27:13;;;;;;;2.90;2.57;;;4.20;86.70;;;;;;5135766;27;20473;-71
2021/01/27 04:29:40;;;;;;;3.57;2.20;;;4.30;86.70;;;;;;5136126;27;20465;-71
2021/01/27 04:32:06;;;;;;;3.20;2.97;;;4.20;86.80;;;;;;5136058;27;20446;-71
2021/01/27 04:34:33;;;;;;;3.93;3.13;;;4.20;86.50;;;;;;5135702;27;20450;-71
2021/01/27 04:36:59;;;;;;;4.43;3.40;;;4.20;86.70;;;;;;5135979;27;20438;-71
2021/01/27 04:39:25;;;;;;;3.40;2.60;;;4.20;86.80;;;;;;5135945;27;20450;-71
2021/01/27 04:41:54;;;;;;;3.40;2.80;;;4.20;86.50;;;;;;5135884;27;20444;-71
2021/01/27 04:44:20;;;;;;;2.80;2.60;;;4.20;86.90;;;;;;5135777;27;20809;-71
2021/01/27 04:46:58;;;;;;;4.30;3.30;;;4.30;87.10;;;;;;5135675;27;20480;-71
2021/01/27 04:49:29;;;;;;;3.63;2.70;;;4.30;87.10;;;;;;5135445;27;20896;-71
2021/01/27 04:51:59;;;;;;;3.03;2.40;;;4.30;87.00;;;;;;5135729;27;20438;-71
2021/01/27 04:54:44;;;;;;;2.93;2.40;;;4.20;86.50;;;;;;5136537;27;20469;-71
2021/01/27 04:57:23;;;;;;;2.17;1.97;;;4.20;87.00;;;;;;5137662;27;20475;-70
2021/01/27 05:00:08;;;;;;;3.30;2.20;;;4.20;87.30;;;;;;5135622;27;20434;-70
2021/01/27 05:02:46;;;;;;;4.10;2.50;;;4.10;87.10;;;;;;5135556;27;20422;-71
2021/01/27 05:05:14;;;;;;;4.13;2.40;;;4.10;87.60;;;;;;5135144;27;20489;-70
2021/01/27 05:08:03;;;;;;;2.20;2.00;;;4.10;88.20;;;;;;5135359;27;20526;-71
2021/01/27 05:10:36;;;;;;;3.43;2.23;;;4.10;88.50;;;;;;5135408;27;20430;-71
2021/01/27 05:13:09;;;;;;;2.80;2.23;;;4.10;88.10;;;;;;5135350;27;20422;-71
2021/01/27 05:15:35;;;;;;;3.67;1.87;;;4.10;88.00;;;;;;5135367;27;20473;-71
2021/01/27 05:18:02;;;;;;;2.37;2.17;;;4.10;88.10;;;;;;5135246;27;20445;-71
2021/01/27 05:20:28;;;;;;;2.80;1.90;;;4.10;88.00;;;;;;5135237;27;20498;-71
2021/01/27 05:22:54;;;;;;;2.57;2.17;;;4.10;88.10;;;;;;5135189;27;20441;-71
2021/01/27 05:25:34;;;;;;;2.30;2.00;;;4.10;88.20;;;;;;5134989;27;20462;-71
2021/01/27 05:28:03;;;;;;;3.87;1.90;;;4.10;88.40;;;;;;5135167;27;20433;-71
2021/01/27 05:30:33;;;;;;;2.90;2.30;;;4.10;88.70;;;;;;5135114;27;20442;-70
2021/01/27 05:33:00;;;;;;;3.80;2.20;;;4.10;88.90;;;;;;5134624;27;20438;-71
2021/01/27 05:35:30;;;;;;;2.30;2.10;;;4.00;89.30;;;;;;5134361;27;20454;-71
2021/01/27 05:37:57;;;;;;;2.70;2.03;;;4.10;89.80;;;;;;5134856;27;20422;-71
2021/01/27 05:40:29;;;;;;;2.10;1.90;;;4.10;89.90;;;;;;5134832;27;20561;-71
2021/01/27 05:42:56;;;;;;;2.70;2.13;;;4.10;90.10;;;;;;5134904;27;20434;-71
2021/01/27 05:45:37;;;;;;;2.70;1.77;;;4.00;90.10;;;;;;5134679;27;20465;-71
2021/01/27 05:48:26;;;;;;;3.10;2.00;;;3.90;90.30;;;;;;5134773;27;20426;-71
2021/01/27 05:50:54;;;;;;;2.00;1.80;;;3.90;90.80;;;;;;5134671;27;20472;-71
2021/01/27 05:53:22;;;;;;;4.00;1.80;;;3.90;90.90;;;;;;5134618;27;20486;-70
2021/01/27 05:56:06;;;;;;;2.80;2.00;;;3.90;91.10;;;;;;5134512;27;20472;-70
2021/01/27 05:58:34;;;;;;;1.90;1.70;;;3.90;91.30;;;;;;5135386;27;20422;-71
2021/01/27 06:01:16;;;;;;;4.73;2.47;;;3.90;91.90;;;;;;5134544;28;20426;-70
2021/01/27 06:03:54;;;;;;;3.27;1.73;;;3.90;91.70;;;;;;5134499;27;20442;-70
2021/01/27 06:06:21;;;;;;;3.40;2.03;;;3.90;91.80;;;;;;5134094;27;20506;-70
2021/01/27 06:08:52;;;;;;;2.73;1.90;;;3.90;91.90;;;;;;5134400;28;20487;-70
2021/01/27 06:11:19;;;;;;;3.20;2.57;;;3.80;92.10;;;;;;5134084;28;20907;-70
2021/01/27 06:13:47;;;;;;;4.80;1.83;;;3.80;92.30;;;;;;5134392;28;20446;-71
2021/01/27 06:16:21;;;;;;;2.43;2.10;;;3.80;92.50;;;;;;5134369;28;20454;-70
2021/01/27 06:18:47;;;;;;;2.70;2.00;;;3.70;92.70;;;;;;5134130;28;20479;-70
2021/01/27 06:21:47;;;;;;;1.97;1.70;;;3.70;93.00;;;;;;5136857;28;20445;-70
2021/01/27 06:24:55;;;;;;;3.70;2.00;;;3.60;93.10;;;;;;5134984;28;20469;-69
2021/01/27 06:27:41;;;;;;;3.10;2.13;;;3.60;93.30;;;;;;5133645;28;20483;-70
2021/01/27 06:30:20;;;;;;;2.30;1.80;;;3.60;93.50;;;;;;5134470;28;20426;-70
2021/01/27 06:33:29;;;;;;;4.03;2.70;;;3.50;93.60;;;;;;5134575;28;20824;-70
2021/01/27 06:36:09;;;;;;;3.47;2.67;;;3.60;93.80;;;;;;5108237;28;20986;-70
2021/01/27 06:38:47;;;;;;;3.10;2.50;;;3.50;93.90;;;;;;5134250;28;20550;-70
2021/01/27 06:41:48;;;;;;;3.43;2.33;;;3.50;94.00;;;;;;5137406;28;20808;-70
2021/01/27 06:44:26;;;;;;;2.30;2.10;;;3.50;94.00;;;;;;5134077;28;20469;-70
2021/01/27 06:47:25;;;;;;;2.90;2.60;;;3.50;94.10;;;;;;5134794;27;20472;-70
2021/01/27 06:50:20;;;;;;;2.80;2.20;;;3.50;94.10;;;;;;5130187;27;20793;-70
2021/01/27 06:53:09;;;;;;;2.90;2.70;;;3.40;94.20;;;;;;5138051;27;20429;-70
2021/01/27 06:56:00;;;;;;;3.00;2.70;;;3.40;94.30;;;;;;5138015;27;20458;-70
2021/01/27 06:58:54;;;;;;;4.13;2.53;;;3.30;94.50;;;;;;5125823;27;20445;-70
2021/01/27 07:01:33;;;;;;;2.90;2.63;;;3.40;94.70;;;;;;5137554;27;20432;-70
2021/01/27 07:04:26;;;;;;;3.80;2.80;;;3.30;94.70;;;;;;5137920;27;20426;-70
2021/01/27 07:07:28;;;;;;;2.67;2.47;;;3.30;94.90;;;;;;5137419;27;20481;-70
2021/01/27 07:10:31;;;;;;;3.30;2.70;;;3.30;95.00;;;;;;5137764;27;20478;-70
2021/01/27 07:13:07;;;;;;;2.13;1.93;;;3.20;95.20;;;;;;5137208;27;20869;-70
2021/01/27 07:15:59;;;;;;;3.80;2.60;;;3.20;95.40;;;;;;5137544;27;20490;-70
2021/01/27 07:19:09;;;;;;;3.90;2.70;;;3.10;95.60;;;;;;5132689;27;20452;-70
2021/01/27 07:21:41;;;;;;;3.13;2.40;;;3.10;95.70;;;;;;5137614;27;20434;-69
2021/01/27 07:24:12;;;;;;;4.80;2.93;;;3.10;95.90;;;;;;5137357;27;20425;-69
2021/01/27 07:26:45;;;;;;;4.90;3.17;;;3.10;96.00;;;;;;5138209;27;20468;-70
2021/01/27 07:29:18;;;;;;;3.93;2.70;;;3.10;96.10;;;;;;5137371;27;20429;-70
2021/01/27 07:31:52;;;;;;;4.63;2.83;;;3.10;96.10;;;;;;5137299;27;20430;-70
2021/01/27 07:34:28;;;;;;;5.17;3.20;;;3.20;96.00;;;;;;5137183;27;20471;-70
2021/01/27 07:37:03;;;;;;;4.23;3.43;;;3.20;96.10;;;;;;5137210;27;20424;-70
2021/01/27 07:39:41;;;;;;;5.03;3.87;;;3.10;96.20;;;;;;5137991;27;20486;-70
2021/01/27 07:42:15;;;;;;;3.63;3.33;;;3.10;96.30;;;;;;5137069;27;20787;-70
2021/01/27 07:44:45;;;;;;;4.90;3.37;;;3.10;96.30;;;;;;5137459;27;20461;-69
2021/01/27 07:47:19;;;;;;;8.37;3.63;;;3.10;96.40;;;;;;5137012;27;20936;-69
2021/01/27 07:49:51;;;;;;;3.23;2.90;;;3.10;96.40;;;;;;5136863;27;20438;-70
2021/01/27 07:52:25;;;;;;;3.33;3.00;;;3.10;96.40;;;;;;5137484;27;20482;-70
2021/01/27 07:55:00;;;;;;;5.33;4.27;;;3.20;96.50;;;;;;5136499;27;20986;-70
2021/01/27 07:57:40;;;;;;;4.20;3.80;;;3.20;96.40;;;;;;5136540;27;20426;-70
2021/01/27 08:00:12;;;;;;;3.87;3.50;;;3.30;96.30;;;;;;5136758;27;20784;-70
2021/01/27 08:03:07;;;;;;;4.33;3.93;;;3.30;96.30;;;;;;5136712;27;20430;-70
2021/01/27 08:05:37;;;;;;;3.77;3.43;;;3.30;96.40;;;;;;5136275;27;21022;-70
2021/01/27 08:08:07;;;;;;;4.27;3.53;;;3.30;96.30;;;;;;5136558;27;20442;-70
2021/01/27 08:10:35;;;;;;;4.00;3.60;;;3.30;96.40;;;;;;5136493;27;20448;-70
2021/01/27 08:13:04;;;;;;;4.43;3.43;;;3.40;96.40;;;;;;5136426;27;20440;-70
2021/01/27 08:15:44;;;;;;;4.20;3.30;;;3.30;96.40;;;;;;5136359;27;20465;-70
2021/01/27 08:18:16;;;;;;;4.13;3.70;;;3.40;96.40;;;;;;5136056;27;20892;-70
2021/01/27 08:20:44;;;;;;;5.23;3.87;;;3.30;96.40;;;;;;5136337;27;20435;-70
2021/01/27 08:23:31;;;;;;;3.00;2.73;;;3.30;96.50;;;;;;5136047;27;20777;-70
2021/01/27 08:25:59;;;;;;;5.10;3.97;;;3.30;96.60;;;;;;5135733;27;20534;-70
2021/01/27 08:28:47;;;;;;;6.40;4.80;;;3.30;96.60;;;;;;5136171;27;20518;-70
2021/01/27 08:31:22;;;;;;;4.60;4.20;;;3.30;96.70;;;;;;5136146;27;20426;-70
2021/01/27 08:33:57;;;;;;;5.30;3.97;;;3.30;96.80;;;;;;5135862;27;20918;-70
2021/01/27 08:37:12;;;;;;;4.53;3.70;;;3.40;96.70;;;;;;5135967;27;20437;-70
2021/01/27 08:39:38;;;;;;;3.97;3.60;;;3.40;96.70;;;;;;5135989;27;20418;-70
2021/01/27 08:42:21;;;;;;;7.53;4.33;;;3.50;96.70;;;;;;5135930;27;20812;-70
2021/01/27 08:44:47;;;;;;;6.20;3.93;;;3.50;96.60;;;;;;5135769;27;20457;-70
2021/01/27 08:47:34;;;;;;;6.80;3.80;;;3.50;96.60;;;;;;5135760;27;20480;-70
2021/01/27 08:50:02;;;;;;;3.73;3.30;;;3.60;96.60;;;;;;5135760;27;20434;-70
2021/01/27 08:52:44;;;;;;;5.53;3.97;;;3.60;96.60;;;;;;5135411;27;20806;-70
2021/01/27 08:55:35;;;;;;;5.17;3.23;;;3.70;96.70;;;;;;5132147;27;20822;-70
2021/01/27 08:58:20;;;;;;;4.50;2.90;;;3.80;96.80;;;;;;5135264;27;20441;-70
2021/01/27 09:00:47;;;;;;;3.90;2.60;;;3.90;96.70;;;;;;5135558;27;20830;-70
2021/01/27 09:03:59;;;;;;;6.33;2.83;;;3.90;96.60;;;;;;5135563;27;20422;-70
2021/01/27 09:06:41;;;;;;;5.47;3.03;;;4.00;96.50;;;;;;5135066;27;20596;-70
2021/01/27 09:09:26;;;;;;;3.73;2.57;;;4.10;96.40;;;;;;5135158;27;20526;-70
2021/01/27 09:11:57;;;;;;;4.23;2.70;;;4.10;96.40;;;;;;5134358;27;20484;-69
2021/01/27 09:14:23;;;;;;;9.13;2.63;;;4.10;96.30;;;;;;5135355;27;20457;-69
2021/01/27 09:16:51;;;;;;;2.97;2.47;;;4.20;96.20;;;;;;5135287;27;20434;-70
2021/01/27 09:19:19;;;;;;;4.50;2.73;;;4.20;96.20;;;;;;5135136;27;20438;-70
2021/01/27 09:22:05;;;;;;;2.27;2.00;;;4.30;96.20;;;;;;5135155;27;20429;-70
2021/01/27 09:24:37;;;;;;;3.87;2.37;;;4.30;96.10;;;;;;5135277;27;20515;-70
2021/01/27 09:27:20;;;;;;;2.80;2.40;;;4.30;96.10;;;;;;5134898;27;20514;-70
2021/01/27 09:29:54;;;;;;;3.60;2.47;;;4.30;96.20;;;;;;5135024;27;20426;-71
2021/01/27 09:32:20;;;;;;;3.37;2.20;;;4.30;96.20;;;;;;5134926;27;20429;-71
2021/01/27 09:34:49;;;;;;;4.03;2.43;;;4.30;96.40;;;;;;5134763;27;20465;-71
2021/01/27 09:37:20;;;;;;;3.63;2.00;;;4.30;96.30;;;;;;5134801;27;20438;-71
2021/01/27 09:39:51;;;;;;;4.90;2.00;;;4.40;96.40;;;;;;5134609;27;20932;-71
2021/01/27 09:42:21;;;;;;;3.83;2.53;;;4.40;96.20;;;;;;5134874;27;20434;-71
2021/01/27 09:44:54;;;;;;;5.00;2.77;;;4.40;96.40;;;;;;5134707;27;20461;-71
2021/01/27 09:47:20;;;;;;;2.67;2.00;;;4.40;96.50;;;;;;5134591;27;20454;-71
2021/01/27 09:49:49;;;;;;;2.30;2.10;;;4.50;96.40;;;;;;5134428;27;20939;-71
2021/01/27 09:52:18;;;;;;;7.17;2.70;;;4.50;96.40;;;;;;5134733;27;20483;-71
2021/01/27 09:54:49;;;;;;;6.80;2.37;;;4.50;96.50;;;;;;5134675;27;20461;-71
2021/01/27 09:57:18;;;;;;;2.47;2.07;;;4.60;96.60;;;;;;5134663;27;20441;-71
2021/01/27 09:59:48;;;;;;;2.57;2.03;;;4.60;96.50;;;;;;5134684;27;20438;-71
2021/01/27 10:02:15;;;;;;;7.90;2.23;;;4.70;96.50;;;;;;5134550;27;20422;-71
2021/01/27 10:04:41;;;;;;;2.50;1.40;;;4.70;96.40;;;;;;5134292;27;20494;-70
2021/01/27 10:07:20;;;;;;;2.00;1.90;;;4.70;96.40;;;;;;5134145;27;20966;-71
2021/01/27 10:09:52;;;;;;;1.97;1.87;;;4.70;96.50;;;;;;5134552;28;20426;-71
2021/01/27 10:12:22;;;;;;;2.60;2.10;;;4.70;96.60;;;;;;5134462;28;20429;-71
2021/01/27 10:14:50;;;;;;;3.70;2.20;;;4.70;96.70;;;;;;5134340;28;20454;-71
2021/01/27 10:17:27;;;;;;;3.93;2.10;;;4.80;96.80;;;;;;5134375;28;20434;-71
2021/01/27 10:20:16;;;;;;;2.73;2.10;;;4.80;96.90;;;;;;5134338;28;20426;-71
2021/01/27 10:22:55;;;;;;;2.03;1.80;;;4.80;96.90;;;;;;5134099;27;20449;-71
2021/01/27 10:25:30;;;;;;;2.60;1.93;;;4.80;96.80;;;;;;5138516;27;20457;-71
2021/01/27 10:28:06;;;;;;;2.53;2.30;;;4.90;96.90;;;;;;5138509;27;20464;-71
2021/01/27 10:30:48;;;;;;;4.27;2.63;;;4.90;96.70;;;;;;5138446;27;20425;-71
2021/01/27 10:33:38;;;;;;;3.80;2.00;;;4.90;96.70;;;;;;5138462;27;20426;-71
2021/01/27 10:36:40;;;;;;;4.63;2.17;;;4.90;96.70;;;;;;5138033;27;21005;-70
2021/01/27 10:39:16;;;;;;;4.00;2.40;;;4.90;96.90;;;;;;5129782;27;20970;-70
2021/01/27 10:41:43;;;;;;;3.33;1.70;;;4.90;96.70;;;;;;5138255;27;20426;-70
2021/01/27 10:44:29;;;;;;;1.97;1.87;;;4.90;96.90;;;;;;5138145;27;20437;-70
2021/01/27 10:47:00;;;;;;;4.07;3.20;;;4.80;96.90;;;;;;5138149;27;20461;-71
2021/01/27 10:49:27;;;;;;;3.40;2.60;;;4.80;97.20;;;;;;5138205;27;20458;-71
2021/01/27 10:51:54;;;;;;;2.47;2.20;;;4.80;97.30;;;;;;5138104;27;20426;-71
2021/01/27 10:54:23;;;;;;;2.80;2.30;;;4.80;97.40;;;;;;5138055;27;20919;-71
2021/01/27 10:56:54;;;;;;;3.20;2.10;;;4.80;97.90;;;;;;5138007;27;20441;-70
2021/01/27 10:59:22;;;;;;;5.03;2.37;;;4.80;97.60;;;;;;5137897;27;20490;-70
2021/01/27 11:01:48;;;;;;;2.50;2.30;;;4.70;97.60;;;;;;5137862;27;20437;-71
2021/01/27 11:04:14;;;;;;;2.57;2.37;;;4.70;97.80;;;;;;5137794;27;20801;-71
2021/01/27 11:06:41;;;;;;;3.00;2.80;;;4.70;97.90;;;;;;5137309;27;20488;-71
2021/01/27 11:09:08;;;;;;;5.13;3.53;;;4.70;98.00;;;;;;5137400;27;20448;-71
2021/01/27 11:11:36;;;;;;;2.90;2.70;;;4.70;98.10;;;;;;5137695;27;20445;-71
2021/01/27 11:14:02;;;;;;;3.30;3.00;;;4.70;98.20;;;;;;5137322;27;20891;-71
2021/01/27 11:16:29;;;;;;;3.20;3.00;;;4.70;98.30;;;;;;5137609;27;20478;-71
2021/01/27 11:18:55;;;;;;;3.10;2.90;;;4.70;98.00;;;;;;5137530;27;20449;-71
2021/01/27 11:21:21;;;;;;;3.30;3.10;;;4.80;98.10;;;;;;5137503;27;20423;-71
2021/01/27 11:23:47;;;;;;;3.93;3.67;;;4.80;98.10;;;;;;5137152;27;20441;-71
2021/01/27 11:26:18;;;;;;;3.70;3.20;;;4.80;98.20;;;;;;5137235;27;20484;-71
2021/01/27 11:28:47;;;;;;;3.90;3.30;;;4.80;98.40;;;;;;5137396;27;20430;-71
2021/01/27 11:31:13;;;;;;;7.20;4.57;;;4.80;98.40;;;;;;5137315;27;20438;-71
2021/01/27 11:33:40;;;;;;;5.77;4.50;;;4.80;98.60;;;;;;5136456;27;20437;-71
2021/01/27 11:36:06;;;;;;;7.67;4.40;;;4.80;98.60;;;;;;5136838;27;20842;-71
2021/01/27 11:38:32;;;;;;;3.73;3.40;;;4.80;98.60;;;;;;5137149;27;20438;-70
2021/01/27 11:40:59;;;;;;;3.40;3.10;;;4.80;98.60;;;;;;5137149;27;20475;-71
2021/01/27 11:43:25;;;;;;;4.67;3.50;;;4.80;98.80;;;;;;5137083;27;20450;-71
2021/01/27 11:45:52;;;;;;;2.93;2.73;;;4.90;98.90;;;;;;5136914;27;20465;-71
2021/01/27 11:48:18;;;;;;;3.73;3.43;;;4.90;98.80;;;;;;5137000;27;20441;-71
2021/01/27 11:50:45;;;;;;;3.80;2.70;;;5.00;98.70;;;;;;5136651;27;20899;-71
2021/01/27 11:53:11;;;;;;;3.67;3.37;;;5.00;98.50;;;;;;5136896;27;20430;-71
2021/01/27 11:55:38;;;;;;;3.00;2.80;;;5.00;98.50;;;;;;5136796;27;20458;-71
2021/01/27 11:58:04;;;;;;;3.87;3.20;;;4.90;98.60;;;;;;5136798;27;20438;-71
2021/01/27 12:00:31;;;;;;;4.53;4.10;;;4.90;98.80;;;;;;5136722;27;20445;-70
2021/01/27 12:02:58;;;;;;;3.70;3.27;;;5.00;99.00;;;;;;5136497;27;20938;-70
2021/01/27 12:05:24;;;;;;;3.60;3.40;;;5.00;99.10;;;;;;5136372;27;20477;-70
2021/01/27 12:07:51;;;;;;;4.33;3.80;;;5.10;99.10;;;;;;5136226;27;20998;-70
2021/01/27 12:10:17;;;;;;;5.43;4.10;;;5.10;99.10;;;;;;5136536;27;20445;-71
2021/01/27 12:12:43;;;;;;;4.87;4.47;;;5.10;99.10;;;;;;5136838;27;20442;-70
2021/01/27 12:15:10;;;;;;;6.73;4.80;;;5.10;98.90;;;;;;5136509;27;20458;-70
2021/01/27 12:17:37;;;;;;;5.57;5.07;;;5.10;99.10;;;;;;5136480;27;20465;-70
2021/01/27 12:20:05;;;;;;;6.07;5.10;;;5.20;99.20;;;;;;5136439;27;20418;-71
2021/01/27 12:22:31;;;;;;;5.10;4.60;;;5.20;99.10;;;;;;5136365;27;20445;-71
2021/01/27 12:24:57;;;;;;;5.27;4.77;;;5.20;99.40;;;;;;5136224;27;20468;-71
2021/01/27 12:27:23;;;;;;;7.77;5.00;;;5.30;99.30;;;;;;5135865;27;20474;-71
2021/01/27 12:29:49;;;;;;;5.00;4.60;;;5.20;99.30;;;;;;5136162;27;20787;-71
2021/01/27 12:32:16;;;;;;;5.50;5.00;;;5.30;99.40;;;;;;5136185;27;20422;-71
2021/01/27 12:34:42;;;;;;;5.23;4.83;;;5.30;99.40;;;;;;5135998;27;20527;-70
2021/01/27 12:37:09;;;;;;;5.23;4.73;;;5.30;99.40;;;;;;5136055;27;20434;-71
2021/01/27 12:39:35;;;;;;;5.80;4.87;;;5.40;99.40;;;;;;5135934;27;20450;-71
2021/01/27 12:42:01;;;;;;;6.53;5.70;;;5.40;99.40;;;;;;5135926;27;20442;-71
2021/01/27 12:44:28;;;;;;;4.77;4.30;;;5.40;99.60;;;;;;5134746;27;20466;-71
2021/01/27 12:46:54;;;;;;;13.13;5.97;;;5.50;99.50;;;;;;5135742;27;20474;-71
2021/01/27 12:49:20;;;;;;;4.73;4.30;;;5.60;99.40;;;;;;5135810;27;20430;-71
2021/01/27 12:51:47;;;;;;;5.53;5.07;;;5.60;99.30;;;;;;5135707;27;20445;-71
2021/01/27 12:54:14;;;;;;;11.50;5.23;;;5.60;99.20;;;;;;5135726;27;20496;-71
2021/01/27 12:56:40;;;;;;;5.33;4.83;;;5.60;99.30;;;;;;5135651;27;20438;-70
2021/01/27 12:59:06;;;;;;;5.73;5.13;;;5.70;99.30;;;;;;5135640;27;20445;-71
2021/01/27 13:01:32;;;;;;;5.20;4.73;;;5.60;99.00;;;;;;5135623;27;20442;-71
2021/01/27 13:03:58;;;;;;;5.00;4.60;;;5.60;99.20;;;;;;5135188;27;20837;-71
2021/01/27 13:06:25;;;;;;;6.83;5.50;;;5.50;99.30;;;;;;5135151;27;20534;-71
2021/01/27 13:08:51;;;;;;;5.63;4.33;;;5.50;99.60;;;;;;5135117;27;20446;-71
2021/01/27 13:11:18;;;;;;;7.17;5.10;;;5.50;99.70;;;;;;5135443;27;20465;-70
2021/01/27 13:13:45;;;;;;;6.53;4.87;;;5.40;99.40;;;;;;5135366;27;20486;-70
2021/01/27 13:16:11;;;;;;;5.40;4.90;;;5.40;99.70;;;;;;5134984;27;20967;-71
2021/01/27 13:18:37;;;;;;;6.07;5.57;;;5.50;99.90;;;;;;5135243;27;20845;-71
2021/01/27 13:21:04;;;;;;;6.47;5.87;;;5.50;99.90;;;;;;5135169;27;20502;-71
2021/01/27 13:23:30;;;;;;;8.57;5.00;;;5.50;99.90;;;;;;5135181;27;20438;-71
2021/01/27 13:25:57;;;;;;;8.23;5.70;;;5.60;99.90;;;;;;5135062;27;20473;-71